Logan International, MA

2:14 PM EDT on March 31, 2015 (GMT -0400)
Logan International | | Change Station
CLOSE
Current Station
Airport
Location: Boston,
Elevation: 20 ft
Nearby Weather Stations

Elev 20 ft 42.36 °N, 71.01 °W | Updated 20 minutes ago

Scattered Clouds
Scattered Clouds
48 °F
Feels Like 48 °F
N
16
Wind Variable Wind from West
Gusts 21 mph

Today
High -- | Low -- °F
--% Chance of Precip.
Yesterday
High -- | Low -- °F
Precip. -- in
6:28 AM 7:08 PM
Waxing Gibbous, 88% visible
Pressure 29.71 in
Visibility 10.0 miles
Clouds Few 5500 ft
Scattered Clouds 25000 ft
Dew Point 22 °F
Humidity 36%
Rainfall 0.00 in
Snow Depth Not available.
UV 6 out of 12
Pollen 7.80 out of 12
Air Quality Not available.
Flu Activity Not available.
METAR KBOS 311754Z 27014G18KT 10SM FEW055 SCT250 09/M06 A2971 RMK AO2 SLP060 T00891056 10094 20039 56018

More Conditions Fewer Conditions

Pressure 29.71 in
Visibility 10.0 miles
Clouds Few 5500 ft
Scattered Clouds 25000 ft
Dew Point 22 °F
Humidity 36%
Rainfall 0.00 in
Snow Depth Not available.
UV 6 out of 12
Pollen 7.80 out of 12
Air Quality Not available.
Flu Activity Not available.
METAR KBOS 311754Z 27014G18KT 10SM FEW055 SCT250 09/M06 A2971 RMK AO2 SLP060 T00891056 10094 20039 56018

More Conditions Fewer Conditions

10-Day Weather Forecast

Almanac

Astronomy

Mar. 31, 2015 Rise Set
Actual Time
Civil Twilight
Nautical Twilight
Astronomical Twilight
Moon
Length of Visible Light
Length of Day
Tomorrow will be .
, % of the Moon is Illuminated

Today's Extremes

State Highs State Lows

Community

WunderPhotos

Upload Photos

1,809,786 photos uploaded!

WunderBlogs® & News

Nearby

Air Quality

  Air Quality AQ Index Pollutant
Not available.

Snow Depth

Station Depth Elevation

Earthquake Activity

City Distance Mag. Time & Date
Minimum magnitude displayed is 2.5.

Coastal Water Temperatures

Place Temperature

Stations

Nearby Weather Stations

Station Location Temp. Windchill Dew Point Humidity Wind Precip. Elev Updated Type